createdAt,value
2022-11-25T00:01:54.077Z,55.90
2022-11-25T00:04:21.008Z,54.10
2022-11-25T00:06:47.762Z,56.33
2022-11-25T00:09:14.588Z,72.60
2022-11-25T00:11:42.513Z,74.37
2022-11-25T00:14:14.149Z,78.53
2022-11-25T00:16:46.472Z,82.60
2022-11-25T00:19:15.160Z,77.17
2022-11-25T00:21:44.781Z,74.37
2022-11-25T00:24:14.242Z,80.17
2022-11-25T00:26:41.399Z,77.37
2022-11-25T00:29:10.240Z,89.00
2022-11-25T00:31:38.619Z,81.33
2022-11-25T00:34:05.848Z,74.13
2022-11-25T00:36:34.060Z,87.13
2022-11-25T00:39:05.475Z,90.53
2022-11-25T00:41:51.043Z,91.63
2022-11-25T00:44:38.318Z,83.97
2022-11-25T00:47:12.072Z,85.37
2022-11-25T00:49:40.104Z,88.27
2022-11-25T00:52:07.019Z,87.03
2022-11-25T00:54:34.342Z,93.83
2022-11-25T00:57:01.460Z,87.17
2022-11-25T00:59:29.761Z,88.27
2022-11-25T01:01:59.206Z,82.07
2022-11-25T01:04:26.925Z,77.27
2022-11-25T01:06:54.418Z,77.13
2022-11-25T01:09:21.215Z,75.73
2022-11-25T01:11:50.235Z,89.30
2022-11-25T01:14:17.097Z,87.73
2022-11-25T01:16:46.720Z,82.77
2022-11-25T01:19:13.945Z,75.40
2022-11-25T01:21:41.007Z,84.70
2022-11-25T01:24:12.459Z,84.60
2022-11-25T01:26:39.348Z,85.53
2022-11-25T01:29:07.081Z,85.97
2022-11-25T01:31:35.337Z,84.37
2022-11-25T01:34:07.086Z,87.73
2022-11-25T01:36:35.566Z,95.20
2022-11-25T01:39:03.597Z,89.63
2022-11-25T01:41:31.739Z,81.63
2022-11-25T01:44:05.331Z,92.40
2022-11-25T01:46:39.783Z,91.97
2022-11-25T01:49:08.684Z,90.83
2022-11-25T01:51:41.301Z,84.40
2022-11-25T01:54:10.163Z,84.57
2022-11-25T01:56:39.770Z,85.97
2022-11-25T01:59:06.714Z,96.50
2022-11-25T02:01:35.727Z,87.23
2022-11-25T02:04:02.894Z,82.17
2022-11-25T02:06:33.692Z,85.13
2022-11-25T02:09:03.544Z,93.23
2022-11-25T02:11:31.064Z,91.37
2022-11-25T02:13:59.389Z,86.83
2022-11-25T02:16:26.487Z,91.37
2022-11-25T02:18:53.476Z,83.93
2022-11-25T02:21:24.635Z,84.70
2022-11-25T02:23:59.752Z,81.87
2022-11-25T02:26:26.886Z,88.30
2022-11-25T02:28:53.665Z,86.30
2022-11-25T02:31:21.355Z,79.10
2022-11-25T02:33:48.192Z,87.60
2022-11-25T02:36:18.081Z,84.13
2022-11-25T02:38:49.409Z,83.23
2022-11-25T02:41:28.803Z,88.17
2022-11-25T02:44:00.015Z,93.60
2022-11-25T02:46:28.137Z,84.70
2022-11-25T02:49:11.185Z,87.67
2022-11-25T02:51:42.117Z,83.33
2022-11-25T02:54:09.480Z,89.70
2022-11-25T02:56:37.013Z,80.77
2022-11-25T02:59:03.880Z,91.77
2022-11-25T03:01:31.738Z,76.77
2022-11-25T03:03:59.497Z,88.67
2022-11-25T03:06:28.041Z,84.97
2022-11-25T03:08:54.943Z,88.00
2022-11-25T03:11:42.278Z,84.30
2022-11-25T03:14:09.700Z,81.37
2022-11-25T03:16:36.562Z,75.80
2022-11-25T03:19:04.328Z,82.00
2022-11-25T03:21:31.173Z,82.50
2022-11-25T03:23:58.110Z,86.30
2022-11-25T03:26:26.350Z,74.50
2022-11-25T03:28:53.396Z,84.83
2022-11-25T03:31:20.667Z,82.73
2022-11-25T03:33:47.865Z,83.37
2022-11-25T03:36:15.106Z,86.17
2022-11-25T03:38:41.982Z,81.03
2022-11-25T03:41:09.280Z,89.80
2022-11-25T03:43:36.753Z,79.70
2022-11-25T03:46:03.794Z,81.70
2022-11-25T03:48:30.936Z,82.20
2022-11-25T03:50:57.811Z,94.63
2022-11-25T03:53:27.278Z,89.77
2022-11-25T03:55:54.288Z,90.20
2022-11-25T03:58:24.394Z,78.67
2022-11-25T04:00:51.751Z,84.33
2022-11-25T04:03:18.680Z,82.13
2022-11-25T04:05:45.583Z,82.50
2022-11-25T04:08:12.772Z,91.60
2022-11-25T04:10:39.969Z,88.97
2022-11-25T04:13:08.896Z,92.53
2022-11-25T04:15:44.081Z,88.47
2022-11-25T04:18:11.065Z,85.07
2022-11-25T04:20:38.948Z,83.07
2022-11-25T04:23:08.281Z,79.60
2022-11-25T04:25:41.254Z,82.80
2022-11-25T04:28:13.774Z,77.13
2022-11-25T04:30:41.410Z,87.50
2022-11-25T04:33:08.409Z,87.60
2022-11-25T04:35:35.350Z,78.17
2022-11-25T04:38:02.823Z,82.50
2022-11-25T04:40:30.598Z,81.67
2022-11-25T04:43:11.047Z,78.97
2022-11-25T04:46:12.654Z,88.37
2022-11-25T04:48:29.636Z,77.60
2022-11-25T04:50:56.728Z,85.97
2022-11-25T04:53:24.109Z,83.00
2022-11-25T04:55:51.057Z,85.53
2022-11-25T04:58:39.191Z,82.07
2022-11-25T05:01:06.823Z,75.83
2022-11-25T05:03:33.948Z,81.47
2022-11-25T05:06:05.552Z,83.77
2022-11-25T05:08:33.350Z,76.87
2022-11-25T05:11:00.760Z,81.47
2022-11-25T05:13:27.846Z,77.80
2022-11-25T05:15:54.769Z,82.30
2022-11-25T05:18:23.206Z,78.13
2022-11-25T05:20:50.005Z,81.20
2022-11-25T05:23:20.563Z,78.93
2022-11-25T05:25:48.420Z,75.43
2022-11-25T05:28:29.393Z,79.53
2022-11-25T05:30:56.809Z,84.67
2022-11-25T05:33:23.737Z,72.43
2022-11-25T05:36:01.336Z,74.07
2022-11-25T05:38:35.946Z,69.07
2022-11-25T05:41:04.917Z,75.90
2022-11-25T05:43:32.023Z,77.17
2022-11-25T05:46:00.347Z,72.20
2022-11-25T05:48:27.812Z,73.40
2022-11-25T05:50:54.696Z,76.00
2022-11-25T05:53:23.531Z,74.27
2022-11-25T05:55:56.718Z,72.53
2022-11-25T05:58:42.484Z,71.10
2022-11-25T06:01:11.103Z,76.80
2022-11-25T06:03:38.373Z,85.07
2022-11-25T06:06:05.905Z,83.23
2022-11-25T06:08:34.829Z,83.30
2022-11-25T06:11:08.794Z,89.20
2022-11-25T06:13:36.288Z,83.57
2022-11-25T06:16:13.981Z,81.87
2022-11-25T06:18:41.199Z,74.83
2022-11-25T06:21:09.739Z,80.40
2022-11-25T06:23:38.035Z,74.57
2022-11-25T06:26:12.453Z,74.43
2022-11-25T06:28:39.943Z,74.20
2022-11-25T06:31:12.618Z,78.90
2022-11-25T06:33:48.388Z,75.00
2022-11-25T06:36:17.445Z,80.87
2022-11-25T06:38:52.022Z,72.90
2022-11-25T06:41:19.457Z,89.23
2022-11-25T06:43:46.228Z,89.60
2022-11-25T06:46:22.779Z,85.67
2022-11-25T06:48:51.650Z,85.00
2022-11-25T06:51:18.689Z,85.03
2022-11-25T06:53:45.929Z,71.80
2022-11-25T06:56:12.708Z,74.80
2022-11-25T06:58:40.007Z,76.07
2022-11-25T07:01:08.220Z,78.23
2022-11-25T07:03:35.436Z,76.80
2022-11-25T07:06:02.459Z,75.37
2022-11-25T07:08:33.732Z,76.90
2022-11-25T07:11:05.720Z,75.73
2022-11-25T07:13:32.680Z,75.40
2022-11-25T07:16:03.573Z,79.70
2022-11-25T07:18:31.954Z,76.10
2022-11-25T07:21:06.363Z,78.50
2022-11-25T07:23:33.897Z,79.13
2022-11-25T07:26:04.989Z,77.60
2022-11-25T07:28:32.023Z,73.50
2022-11-25T07:31:23.246Z,77.70
2022-11-25T07:33:53.396Z,73.87
2022-11-25T07:36:20.340Z,74.00
2022-11-25T07:38:47.432Z,78.60
2022-11-25T07:41:15.819Z,74.93
2022-11-25T07:43:46.256Z,71.03
2022-11-25T07:46:16.458Z,74.40
2022-11-25T07:48:44.293Z,77.53
2022-11-25T07:51:21.667Z,71.60
2022-11-25T07:53:48.957Z,82.33
2022-11-25T07:56:16.434Z,82.63
2022-11-25T07:58:46.015Z,83.17
2022-11-25T08:01:13.856Z,74.90
2022-11-25T08:03:41.610Z,83.27
2022-11-25T08:06:10.003Z,72.80
2022-11-25T08:08:37.888Z,73.83
2022-11-25T08:11:09.087Z,81.70
2022-11-25T08:13:36.320Z,74.70
2022-11-25T08:16:03.189Z,86.30
2022-11-25T08:18:30.385Z,82.33
2022-11-25T08:21:05.319Z,81.70
2022-11-25T08:23:33.124Z,79.60
2022-11-25T08:26:09.420Z,68.50
2022-11-25T08:28:36.730Z,72.97
2022-11-25T08:31:04.310Z,80.30
2022-11-25T08:33:31.297Z,69.83
2022-11-25T08:35:58.168Z,73.00
2022-11-25T08:38:25.257Z,77.20
2022-11-25T08:40:52.353Z,74.13
2022-11-25T08:43:26.378Z,72.73
2022-11-25T08:45:56.126Z,67.23
2022-11-25T08:48:22.961Z,70.10
2022-11-25T08:50:54.349Z,60.90
2022-11-25T08:53:22.173Z,65.90
2022-11-25T08:55:49.720Z,58.23
2022-11-25T08:58:16.776Z,57.97
2022-11-25T09:00:44.547Z,57.07
2022-11-25T09:03:12.152Z,54.33
2022-11-25T09:05:40.622Z,53.17
2022-11-25T09:08:07.956Z,58.30
2022-11-25T09:10:35.270Z,55.30
2022-11-25T09:13:11.970Z,59.27
2022-11-25T09:15:39.485Z,58.67
2022-11-25T09:18:11.325Z,54.07
2022-11-25T09:20:41.262Z,64.60
2022-11-25T09:23:09.100Z,64.37
2022-11-25T09:25:36.302Z,55.27
2022-11-25T09:28:03.607Z,65.07
2022-11-25T09:30:30.519Z,64.80
2022-11-25T09:32:57.931Z,60.50
2022-11-25T09:35:25.563Z,64.33
2022-11-25T09:37:52.709Z,62.43
2022-11-25T09:40:38.338Z,62.80
2022-11-25T09:43:36.114Z,60.27
2022-11-25T09:46:38.369Z,58.17
2022-11-25T09:49:24.330Z,52.60
2022-11-25T09:52:00.471Z,54.53
2022-11-25T09:54:35.192Z,55.43
2022-11-25T09:57:21.621Z,51.27
2022-11-25T10:00:02.118Z,60.17
2022-11-25T10:02:35.339Z,59.00
2022-11-25T10:05:05.590Z,55.90
2022-11-25T10:07:36.947Z,52.37
2022-11-25T10:10:05.040Z,53.70
2022-11-25T10:12:34.742Z,57.33
2022-11-25T10:15:06.558Z,67.70
2022-11-25T10:17:50.440Z,57.03
2022-11-25T10:20:29.770Z,55.77
2022-11-25T10:23:12.278Z,62.87
2022-11-25T10:25:43.308Z,59.20
2022-11-25T10:28:10.154Z,56.40
2022-11-25T10:30:37.012Z,69.23
2022-11-25T10:33:07.018Z,59.00
2022-11-25T10:35:49.252Z,68.40
2022-11-25T10:38:20.343Z,59.87
2022-11-25T10:40:48.954Z,60.40
2022-11-25T10:43:15.906Z,63.93
2022-11-25T10:46:02.378Z,63.87
2022-11-25T10:48:29.323Z,52.33
2022-11-25T10:50:56.174Z,60.80
2022-11-25T10:53:24.880Z,66.07
2022-11-25T10:55:59.379Z,52.30
2022-11-25T10:58:28.055Z,56.63
2022-11-25T11:01:13.016Z,80.97
2022-11-25T11:03:40.219Z,98.37
2022-11-25T11:06:07.112Z,116.50
2022-11-25T11:08:39.925Z,80.83
2022-11-25T11:11:09.986Z,45.40
2022-11-25T11:13:36.851Z,64.47
2022-11-25T11:16:04.285Z,37.43
2022-11-25T11:18:36.912Z,38.63
2022-11-25T11:21:05.415Z,45.33
2022-11-25T11:23:46.794Z,46.77
2022-11-25T11:26:21.858Z,56.63
2022-11-25T11:28:56.837Z,44.23
2022-11-25T11:31:25.550Z,45.17
2022-11-25T11:33:52.453Z,41.90
2022-11-25T11:36:34.013Z,51.30
2022-11-25T11:39:23.612Z,46.37
2022-11-25T11:41:54.531Z,54.50
2022-11-25T11:44:36.892Z,75.33
2022-11-25T11:47:04.025Z,62.00
2022-11-25T11:49:54.160Z,53.37
2022-11-25T11:52:40.467Z,55.63
2022-11-25T11:55:13.637Z,54.17
2022-11-25T11:57:48.527Z,57.80
2022-11-25T12:00:15.790Z,54.50
2022-11-25T12:02:59.102Z,60.73
2022-11-25T12:05:30.973Z,58.17
2022-11-25T12:08:11.194Z,55.23
2022-11-25T12:10:47.990Z,59.50
2022-11-25T12:13:21.564Z,69.40
2022-11-25T12:16:09.348Z,52.97
2022-11-25T12:18:36.512Z,56.83
2022-11-25T12:21:05.552Z,49.63
2022-11-25T12:23:50.654Z,47.53
2022-11-25T12:26:27.244Z,48.57
2022-11-25T12:29:02.796Z,48.47
2022-11-25T12:31:33.140Z,43.63
2022-11-25T12:34:03.019Z,46.10
2022-11-25T12:36:37.668Z,43.37
2022-11-25T12:39:25.634Z,46.00
2022-11-25T12:41:56.278Z,49.40
2022-11-25T12:44:26.411Z,39.37
2022-11-25T12:46:56.862Z,42.97
2022-11-25T12:49:27.614Z,40.97
2022-11-25T12:52:03.540Z,40.10
2022-11-25T12:54:53.760Z,50.37
2022-11-25T12:57:49.024Z,43.93
2022-11-25T13:00:41.560Z,43.93
2022-11-25T13:03:27.716Z,43.00
2022-11-25T13:06:15.829Z,45.00
2022-11-25T13:09:01.603Z,48.83
2022-11-25T13:11:47.440Z,45.27
2022-11-25T13:14:26.239Z,45.87
2022-11-25T13:16:54.192Z,59.37
2022-11-25T13:19:21.674Z,53.23
2022-11-25T13:22:03.002Z,43.70
2022-11-25T13:24:34.739Z,56.43
2022-11-25T13:27:02.075Z,38.43
2022-11-25T13:29:28.931Z,41.93
2022-11-25T13:32:25.329Z,39.60
2022-11-25T13:35:12.533Z,41.67
2022-11-25T13:37:40.980Z,36.13
2022-11-25T13:40:20.221Z,37.37
2022-11-25T13:42:47.342Z,39.87
2022-11-25T13:45:26.199Z,34.83
2022-11-25T13:47:54.339Z,38.27
2022-11-25T13:50:36.833Z,36.00
2022-11-25T13:53:33.672Z,36.73
2022-11-25T13:56:24.690Z,42.07
2022-11-25T13:59:10.699Z,42.40
2022-11-25T14:01:47.541Z,42.97
2022-11-25T14:04:15.809Z,30.37
2022-11-25T14:07:00.981Z,33.30
2022-11-25T14:09:35.043Z,40.30
2022-11-25T14:12:17.437Z,40.37
2022-11-25T14:15:02.895Z,43.47
2022-11-25T14:17:32.569Z,42.53
2022-11-25T14:19:59.574Z,40.00
2022-11-25T14:22:26.594Z,34.43
2022-11-25T14:24:55.143Z,39.33
2022-11-25T14:27:26.349Z,45.17
2022-11-25T14:30:13.768Z,41.63
2022-11-25T14:33:02.146Z,32.97
2022-11-25T14:35:44.825Z,31.33
2022-11-25T14:38:12.410Z,32.57
2022-11-25T14:40:44.819Z,34.60
2022-11-25T14:43:17.022Z,31.27
2022-11-25T14:45:44.100Z,32.37
2022-11-25T14:48:18.465Z,39.67
2022-11-25T14:50:55.848Z,35.77
2022-11-25T14:53:22.852Z,30.17
2022-11-25T14:55:49.752Z,37.33
2022-11-25T14:58:17.012Z,55.43
2022-11-25T15:01:01.592Z,37.33
2022-11-25T15:03:28.628Z,39.67
2022-11-25T15:05:57.395Z,43.57
2022-11-25T15:08:25.472Z,84.40
2022-11-25T15:10:56.556Z,77.63
2022-11-25T15:13:29.316Z,97.60
2022-11-25T15:15:59.061Z,84.97
2022-11-25T15:18:26.251Z,82.10
2022-11-25T15:20:58.316Z,85.40
2022-11-25T15:23:32.149Z,99.90
2022-11-25T15:25:59.114Z,102.23
2022-11-25T15:28:26.000Z,145.13
2022-11-25T15:30:59.507Z,117.30
2022-11-25T15:33:27.555Z,95.77
2022-11-25T15:35:54.345Z,37.73
2022-11-25T15:38:50.583Z,33.63
2022-11-25T15:41:17.382Z,32.97
2022-11-25T15:43:55.529Z,29.10
2022-11-25T15:46:24.254Z,29.53
2022-11-25T15:48:53.075Z,27.53
2022-11-25T15:51:23.140Z,28.47
2022-11-25T15:53:54.734Z,32.10
2022-11-25T15:56:24.397Z,34.93
2022-11-25T15:58:51.360Z,30.30
2022-11-25T16:01:18.836Z,29.43
2022-11-25T16:03:47.417Z,27.60
2022-11-25T16:06:24.879Z,38.53
2022-11-25T16:08:56.435Z,37.47
2022-11-25T16:11:25.684Z,40.00
2022-11-25T16:13:53.415Z,40.10
2022-11-25T16:16:22.186Z,43.47
2022-11-25T16:19:05.359Z,40.03
2022-11-25T16:21:36.008Z,39.70
2022-11-25T16:24:07.030Z,35.63
2022-11-25T16:26:39.486Z,40.57
2022-11-25T16:29:22.637Z,54.57
2022-11-25T16:31:49.896Z,55.37
2022-11-25T16:34:19.736Z,65.23
2022-11-25T16:36:47.077Z,57.20
2022-11-25T16:39:14.329Z,54.67
2022-11-25T16:41:41.588Z,59.27
2022-11-25T16:44:16.992Z,54.40
2022-11-25T16:46:43.962Z,61.43
2022-11-25T16:49:14.415Z,64.03
2022-11-25T16:51:41.854Z,55.03
2022-11-25T16:54:08.764Z,62.17
2022-11-25T16:56:38.039Z,49.53
2022-11-25T16:59:05.356Z,65.27
2022-11-25T17:01:33.382Z,63.40
2022-11-25T17:04:00.383Z,65.83
2022-11-25T17:06:28.966Z,67.40
2022-11-25T17:08:55.913Z,66.00
2022-11-25T17:11:31.048Z,58.90
2022-11-25T17:13:59.402Z,53.47
2022-11-25T17:16:27.233Z,68.60
2022-11-25T17:18:55.615Z,66.90
2022-11-25T17:21:28.057Z,56.60
2022-11-25T17:23:55.643Z,65.33
2022-11-25T17:26:25.198Z,59.00
2022-11-25T17:28:54.845Z,67.93
2022-11-25T17:31:25.138Z,60.33
2022-11-25T17:33:52.827Z,61.57
2022-11-25T17:36:19.908Z,67.87
2022-11-25T17:38:46.877Z,65.43
2022-11-25T17:41:18.136Z,51.90
2022-11-25T17:43:46.757Z,61.70
2022-11-25T17:46:15.088Z,65.03
2022-11-25T17:48:44.881Z,55.97
2022-11-25T17:51:12.679Z,57.70
2022-11-25T17:53:40.671Z,54.97
2022-11-25T17:56:55.741Z,59.67
2022-11-25T17:59:26.976Z,49.67
2022-11-25T18:01:56.145Z,70.97
2022-11-25T18:04:24.452Z,53.53
2022-11-25T18:06:51.492Z,52.27
2022-11-25T18:09:18.417Z,57.80
2022-11-25T18:11:49.725Z,51.60
2022-11-25T18:14:26.449Z,57.77
2022-11-25T18:16:54.740Z,57.07
2022-11-25T18:19:21.690Z,58.07
2022-11-25T18:21:48.545Z,61.83
2022-11-25T18:24:15.467Z,56.70
2022-11-25T18:26:44.077Z,58.37
2022-11-25T18:29:15.586Z,60.50
2022-11-25T18:31:42.759Z,60.70
2022-11-25T18:34:14.535Z,56.03
2022-11-25T18:36:41.725Z,57.70
2022-11-25T18:39:11.250Z,61.03
2022-11-25T18:41:39.210Z,60.53
2022-11-25T18:44:07.063Z,52.87
2022-11-25T18:46:35.976Z,60.03
2022-11-25T18:49:09.687Z,61.70
2022-11-25T18:51:36.590Z,64.63
2022-11-25T18:54:03.517Z,73.90
2022-11-25T18:56:30.316Z,61.17
2022-11-25T18:59:00.542Z,58.37
2022-11-25T19:01:28.140Z,57.47
2022-11-25T19:03:55.660Z,56.53
2022-11-25T19:06:22.948Z,61.33
2022-11-25T19:08:52.609Z,67.80
2022-11-25T19:11:23.401Z,73.43
2022-11-25T19:13:53.469Z,74.20
2022-11-25T19:16:21.616Z,176.63
2022-11-25T19:18:49.461Z,71.23
2022-11-25T19:21:17.051Z,68.83
2022-11-25T19:23:44.122Z,71.83
2022-11-25T19:26:19.189Z,65.77
2022-11-25T19:28:49.749Z,67.63
2022-11-25T19:31:18.059Z,75.43
2022-11-25T19:33:47.039Z,66.23
2022-11-25T19:36:21.216Z,70.63
2022-11-25T19:38:48.232Z,65.70
2022-11-25T19:41:15.080Z,69.47
2022-11-25T19:43:41.942Z,67.13
2022-11-25T19:46:29.312Z,70.17
2022-11-25T19:48:58.573Z,68.47
2022-11-25T19:51:26.946Z,77.30
2022-11-25T19:53:53.866Z,89.60
2022-11-25T19:56:24.516Z,74.23
2022-11-25T19:58:52.776Z,60.80
2022-11-25T20:01:21.117Z,86.27
2022-11-25T20:03:49.736Z,76.57
2022-11-25T20:06:18.344Z,72.63
2022-11-25T20:08:45.639Z,64.87
2022-11-25T20:11:16.176Z,77.60
2022-11-25T20:13:43.900Z,64.57
2022-11-25T20:16:24.247Z,59.43
2022-11-25T20:18:52.618Z,68.60
2022-11-25T20:21:31.884Z,69.43
2022-11-25T20:23:58.994Z,67.63
2022-11-25T20:26:30.825Z,61.23
2022-11-25T20:28:57.741Z,71.10
2022-11-25T20:31:30.005Z,73.07
2022-11-25T20:33:57.356Z,66.47
2022-11-25T20:36:28.290Z,66.50
2022-11-25T20:38:56.219Z,66.83
2022-11-25T20:41:27.732Z,63.43
2022-11-25T20:43:55.907Z,67.10
2022-11-25T20:46:24.650Z,65.07
2022-11-25T20:48:56.226Z,65.60
2022-11-25T20:51:24.076Z,70.90
2022-11-25T20:53:52.373Z,67.80
2022-11-25T20:56:20.495Z,66.30
2022-11-25T20:58:47.763Z,65.93
2022-11-25T21:01:15.651Z,74.00
2022-11-25T21:03:43.403Z,65.70
2022-11-25T21:06:29.468Z,68.50
2022-11-25T21:08:58.503Z,67.53
2022-11-25T21:11:26.721Z,67.13
2022-11-25T21:13:54.306Z,67.37
2022-11-25T21:16:21.361Z,65.27
2022-11-25T21:18:48.231Z,66.40
2022-11-25T21:21:44.636Z,67.07
2022-11-25T21:24:14.302Z,72.00
2022-11-25T21:26:41.124Z,66.27
2022-11-25T21:29:11.098Z,74.43
2022-11-25T21:31:38.052Z,63.53
2022-11-25T21:34:09.411Z,66.63
2022-11-25T21:36:36.542Z,75.00
2022-11-25T21:39:05.216Z,61.90
2022-11-25T21:41:32.086Z,64.33
2022-11-25T21:43:59.079Z,66.37
2022-11-25T21:46:26.623Z,69.57
2022-11-25T21:48:54.109Z,67.43
2022-11-25T21:51:24.406Z,64.03
2022-11-25T21:53:54.832Z,67.90
2022-11-25T21:56:34.288Z,72.93
2022-11-25T21:59:02.212Z,67.60
2022-11-25T22:01:29.285Z,65.13
2022-11-25T22:03:56.377Z,68.87
2022-11-25T22:06:24.655Z,55.27
2022-11-25T22:08:51.530Z,33.63
2022-11-25T22:11:21.255Z,32.40
2022-11-25T22:13:48.925Z,40.20
2022-11-25T22:16:17.681Z,32.80
2022-11-25T22:18:45.263Z,38.17
2022-11-25T22:21:13.259Z,42.30
2022-11-25T22:23:40.603Z,41.30
2022-11-25T22:26:07.858Z,46.83
2022-11-25T22:28:35.315Z,45.20
2022-11-25T22:31:03.193Z,45.20
2022-11-25T22:33:31.369Z,38.93
2022-11-25T22:35:58.748Z,43.27
2022-11-25T22:38:27.057Z,34.73
2022-11-25T22:40:58.702Z,35.50
2022-11-25T22:43:28.226Z,33.20
2022-11-25T22:45:55.775Z,41.20
2022-11-25T22:48:36.788Z,37.13
2022-11-25T22:51:04.267Z,34.03
2022-11-25T22:53:31.540Z,38.60
2022-11-25T22:55:59.138Z,45.17
2022-11-25T22:58:26.610Z,54.40
2022-11-25T23:00:54.142Z,73.27
2022-11-25T23:03:22.993Z,62.13
2022-11-25T23:05:51.913Z,49.97
2022-11-25T23:08:20.322Z,48.30
2022-11-25T23:10:48.769Z,43.90
2022-11-25T23:13:20.796Z,39.83
2022-11-25T23:15:50.422Z,40.27
2022-11-25T23:18:24.323Z,41.83
2022-11-25T23:20:51.351Z,36.73
2022-11-25T23:23:19.746Z,43.23
2022-11-25T23:25:47.533Z,49.80
2022-11-25T23:28:14.804Z,45.73
2022-11-25T23:30:45.468Z,53.07
2022-11-25T23:33:17.451Z,54.37
2022-11-25T23:35:44.383Z,58.13
2022-11-25T23:38:15.164Z,59.73
2022-11-25T23:40:42.363Z,54.30
2022-11-25T23:43:13.948Z,47.17
2022-11-25T23:45:48.549Z,53.10
2022-11-25T23:48:16.083Z,45.43
2022-11-25T23:50:43.575Z,53.53
2022-11-25T23:53:16.233Z,50.50
2022-11-25T23:55:43.384Z,48.00
2022-11-25T23:58:17.890Z,48.27
